createdAt,value
2023-01-28T00:00:15.164Z,79.77
2023-01-28T00:01:15.153Z,80.08
2023-01-28T00:02:15.140Z,79.66
2023-01-28T00:03:15.125Z,79.35
2023-01-28T00:04:15.116Z,79.66
2023-01-28T00:05:15.373Z,79.77
2023-01-28T00:06:15.116Z,79.77
2023-01-28T00:07:15.087Z,79.56
2023-01-28T00:08:15.072Z,79.66
2023-01-28T00:09:15.161Z,79.35
2023-01-28T00:10:15.058Z,79.35
2023-01-28T00:11:15.053Z,80.08
2023-01-28T00:12:15.031Z,79.04
2023-01-28T00:13:15.045Z,78.94
2023-01-28T00:14:15.008Z,79.46
2023-01-28T00:15:15.430Z,79.56
2023-01-28T00:16:15.034Z,79.56
2023-01-28T00:17:14.975Z,79.14
2023-01-28T00:18:14.969Z,78.94
2023-01-28T00:19:14.956Z,78.73
2023-01-28T00:20:14.938Z,79.04
2023-01-28T00:21:14.942Z,79.70
2023-01-28T00:22:14.917Z,80.40
2023-01-28T00:23:14.911Z,79.98
2023-01-28T00:24:14.979Z,79.77
2023-01-28T00:25:15.194Z,79.98
2023-01-28T00:26:14.875Z,79.49
2023-01-28T00:27:14.879Z,80.02
2023-01-28T00:28:14.852Z,79.80
2023-01-28T00:29:14.851Z,80.54
2023-01-28T00:30:14.831Z,80.64
2023-01-28T00:31:14.823Z,80.60
2023-01-28T00:32:14.821Z,80.71
2023-01-28T00:33:14.803Z,80.60
2023-01-28T00:34:14.791Z,80.81
2023-01-28T00:35:15.063Z,80.91
2023-01-28T00:36:14.805Z,81.02
2023-01-28T00:37:14.769Z,79.60
2023-01-28T00:38:14.742Z,79.70
2023-01-28T00:39:14.738Z,80.43
2023-01-28T00:40:14.723Z,80.33
2023-01-28T00:41:14.715Z,80.64
2023-01-28T00:42:14.732Z,80.22
2023-01-28T00:43:14.693Z,80.54
2023-01-28T00:44:14.675Z,80.74
2023-01-28T00:45:15.117Z,80.22
2023-01-28T00:46:14.731Z,80.85
2023-01-28T00:47:14.671Z,80.74
2023-01-28T00:48:14.639Z,79.91
2023-01-28T00:49:14.647Z,78.97
2023-01-28T00:50:14.617Z,79.28
2023-01-28T00:51:14.631Z,79.70
2023-01-28T00:52:14.602Z,80.12
2023-01-28T00:53:14.591Z,80.12
2023-01-28T00:54:14.571Z,80.33
2023-01-28T00:55:15.076Z,80.33
2023-01-28T00:56:14.547Z,80.33
2023-01-28T00:57:14.550Z,80.22
2023-01-28T00:58:14.525Z,80.54
2023-01-28T00:59:14.518Z,80.43
2023-01-28T01:00:14.515Z,79.91
2023-01-28T01:01:14.605Z,79.28
2023-01-28T01:02:14.584Z,79.18
2023-01-28T01:03:14.487Z,79.28
2023-01-28T01:04:14.461Z,79.70
2023-01-28T01:05:14.895Z,79.39
2023-01-28T01:06:14.457Z,79.49
2023-01-28T01:07:14.457Z,80.12
2023-01-28T01:08:14.416Z,80.43
2023-01-28T01:09:14.409Z,81.05
2023-01-28T01:10:14.433Z,80.54
2023-01-28T01:11:14.391Z,79.49
2023-01-28T01:12:14.384Z,79.49
2023-01-28T01:13:14.385Z,79.70
2023-01-28T01:14:14.394Z,79.70
2023-01-28T01:15:14.794Z,80.12
2023-01-28T01:16:14.383Z,80.22
2023-01-28T01:17:14.334Z,80.22
2023-01-28T01:18:14.307Z,80.43
2023-01-28T01:19:14.311Z,80.02
2023-01-28T01:20:14.290Z,79.80
2023-01-28T01:21:14.281Z,79.91
2023-01-28T01:22:14.273Z,79.91
2023-01-28T01:23:14.269Z,80.22
2023-01-28T01:24:14.302Z,80.54
2023-01-28T01:25:14.486Z,79.91
2023-01-28T01:26:14.222Z,79.60
2023-01-28T01:27:14.222Z,79.91
2023-01-28T01:28:14.202Z,79.60
2023-01-28T01:29:14.194Z,79.39
2023-01-28T01:30:14.189Z,79.91
2023-01-28T01:31:14.224Z,79.91
2023-01-28T01:32:14.176Z,80.02
2023-01-28T01:33:14.150Z,79.91
2023-01-28T01:34:14.143Z,79.80
2023-01-28T01:35:14.842Z,79.80
2023-01-28T01:36:14.121Z,79.49
2023-01-28T01:37:14.114Z,80.43
2023-01-28T01:38:14.243Z,80.54
2023-01-28T01:39:14.085Z,81.16
2023-01-28T01:40:14.084Z,81.47
2023-01-28T01:41:14.067Z,81.16
2023-01-28T01:42:14.061Z,80.54
2023-01-28T01:43:14.042Z,80.54
2023-01-28T01:44:14.027Z,80.54
2023-01-28T01:45:14.468Z,81.05
2023-01-28T01:46:14.047Z,80.95
2023-01-28T01:47:14.026Z,80.22
2023-01-28T01:48:13.992Z,80.02
2023-01-28T01:49:13.975Z,80.22
2023-01-28T01:50:13.973Z,80.74
2023-01-28T01:51:13.957Z,80.22
2023-01-28T01:52:13.953Z,80.02
2023-01-28T01:53:13.940Z,80.02
2023-01-28T01:54:13.919Z,80.33
2023-01-28T01:55:14.181Z,80.12
2023-01-28T01:56:13.896Z,80.12
2023-01-28T01:57:13.898Z,80.12
2023-01-28T01:58:13.877Z,80.22
2023-01-28T01:59:13.881Z,80.43
2023-01-28T02:00:13.855Z,80.54
2023-01-28T02:01:13.845Z,80.74
2023-01-28T02:02:13.848Z,80.33
2023-01-28T02:03:13.838Z,80.33
2023-01-28T02:04:13.815Z,80.64
2023-01-28T02:05:14.146Z,81.05
2023-01-28T02:06:13.788Z,80.85
2023-01-28T02:07:13.841Z,80.95
2023-01-28T02:08:13.771Z,81.16
2023-01-28T02:09:13.759Z,80.64
2023-01-28T02:10:13.747Z,80.54
2023-01-28T02:11:13.736Z,80.54
2023-01-28T02:12:13.759Z,80.43
2023-01-28T02:13:13.718Z,80.43
2023-01-28T02:14:22.449Z,80.78
2023-01-28T02:15:14.089Z,81.26
2023-01-28T02:16:13.689Z,81.26
2023-01-28T02:17:13.697Z,81.05
2023-01-28T02:18:13.656Z,81.16
2023-01-28T02:19:13.646Z,80.99
2023-01-28T02:20:13.646Z,80.57
2023-01-28T02:21:13.628Z,80.88
2023-01-28T02:22:13.631Z,81.09
2023-01-28T02:23:13.604Z,81.09
2023-01-28T02:24:13.641Z,80.99
2023-01-28T02:25:13.922Z,80.26
2023-01-28T02:26:13.580Z,80.78
2023-01-28T02:27:13.580Z,80.26
2023-01-28T02:28:13.558Z,80.16
2023-01-28T02:29:13.539Z,80.57
2023-01-28T02:30:13.531Z,80.57
2023-01-28T02:31:13.646Z,80.78
2023-01-28T02:32:13.510Z,80.95
2023-01-28T02:33:13.504Z,81.09
2023-01-28T02:34:13.493Z,80.99
2023-01-28T02:35:13.952Z,81.30
2023-01-28T02:36:13.467Z,80.54
2023-01-28T02:37:13.451Z,80.47
2023-01-28T02:38:13.457Z,80.47
2023-01-28T02:39:13.444Z,80.47
2023-01-28T02:40:13.422Z,80.57
2023-01-28T02:41:13.408Z,80.78
2023-01-28T02:42:13.403Z,80.78
2023-01-28T02:43:13.399Z,80.26
2023-01-28T02:44:13.382Z,80.05
2023-01-28T02:45:13.739Z,80.78
2023-01-28T02:46:13.389Z,80.57
2023-01-28T02:47:13.346Z,80.16
2023-01-28T02:48:13.344Z,80.26
2023-01-28T02:49:13.322Z,80.47
2023-01-28T02:50:13.320Z,80.26
2023-01-28T02:51:13.304Z,79.84
2023-01-28T02:52:13.298Z,79.74
2023-01-28T02:53:13.293Z,80.36
2023-01-28T02:54:13.277Z,80.47
2023-01-28T02:55:13.541Z,80.36
2023-01-28T02:56:13.250Z,80.36
2023-01-28T02:57:13.237Z,80.26
2023-01-28T02:58:13.239Z,80.05
2023-01-28T02:59:13.215Z,80.05
2023-01-28T03:00:13.206Z,79.22
2023-01-28T03:01:13.226Z,79.22
2023-01-28T03:02:13.289Z,79.53
2023-01-28T03:03:13.181Z,79.94
2023-01-28T03:04:13.162Z,80.16
2023-01-28T03:05:13.490Z,80.36
2023-01-28T03:06:13.146Z,80.36
2023-01-28T03:07:13.126Z,80.47
2023-01-28T03:08:13.131Z,80.68
2023-01-28T03:09:13.105Z,81.09
2023-01-28T03:10:15.149Z,81.51
2023-01-28T03:11:13.085Z,81.51
2023-01-28T03:12:13.083Z,81.72
2023-01-28T03:13:13.069Z,81.55
2023-01-28T03:14:13.051Z,81.76
2023-01-28T03:15:13.497Z,81.96
2023-01-28T03:16:13.087Z,82.28
2023-01-28T03:17:13.024Z,82.59
2023-01-28T03:18:13.019Z,82.48
2023-01-28T03:19:13.019Z,82.07
2023-01-28T03:20:12.998Z,82.07
2023-01-28T03:21:12.990Z,81.86
2023-01-28T03:22:13.010Z,81.65
2023-01-28T03:23:12.966Z,81.76
2023-01-28T03:24:12.977Z,81.86
2023-01-28T03:25:13.356Z,81.96
2023-01-28T03:26:12.923Z,82.38
2023-01-28T03:27:12.914Z,82.70
2023-01-28T03:28:12.919Z,81.65
2023-01-28T03:29:12.891Z,81.76
2023-01-28T03:30:12.875Z,82.07
2023-01-28T03:31:12.875Z,81.86
2023-01-28T03:32:12.897Z,82.07
2023-01-28T03:33:12.863Z,82.17
2023-01-28T03:34:12.835Z,82.17
2023-01-28T03:35:13.409Z,81.45
2023-01-28T03:36:12.810Z,81.13
2023-01-28T03:37:12.807Z,81.13
2023-01-28T03:38:12.830Z,81.65
2023-01-28T03:39:12.863Z,81.65
2023-01-28T03:40:12.767Z,81.76
2023-01-28T03:41:12.765Z,81.55
2023-01-28T03:42:12.770Z,81.45
2023-01-28T03:43:12.754Z,81.34
2023-01-28T03:44:12.728Z,81.34
2023-01-28T03:45:13.319Z,81.55
2023-01-28T03:46:12.735Z,81.96
2023-01-28T03:47:12.711Z,81.96
2023-01-28T03:48:12.698Z,81.96
2023-01-28T03:49:12.677Z,81.76
2023-01-28T03:50:12.666Z,81.23
2023-01-28T03:51:12.655Z,80.92
2023-01-28T03:52:12.702Z,81.02
2023-01-28T03:53:15.961Z,81.34
2023-01-28T03:54:12.617Z,81.76
2023-01-28T03:55:13.053Z,81.65
2023-01-28T03:56:12.596Z,81.55
2023-01-28T03:57:12.587Z,81.34
2023-01-28T03:58:12.590Z,81.23
2023-01-28T03:59:12.570Z,81.02
2023-01-28T04:00:12.555Z,81.23
2023-01-28T04:01:12.548Z,81.45
2023-01-28T04:02:12.540Z,81.02
2023-01-28T04:03:12.613Z,81.13
2023-01-28T04:04:12.536Z,81.65
2023-01-28T04:05:12.988Z,81.45
2023-01-28T04:06:12.509Z,81.45
2023-01-28T04:07:12.483Z,81.34
2023-01-28T04:08:12.509Z,81.23
2023-01-28T04:09:12.457Z,81.45
2023-01-28T04:10:12.445Z,81.34
2023-01-28T04:11:12.438Z,81.13
2023-01-28T04:12:12.441Z,81.34
2023-01-28T04:13:13.522Z,80.92
2023-01-28T04:14:12.411Z,81.45
2023-01-28T04:15:12.796Z,81.34
2023-01-28T04:16:12.406Z,81.23
2023-01-28T04:17:12.370Z,81.23
2023-01-28T04:18:12.358Z,81.23
2023-01-28T04:19:12.375Z,81.13
2023-01-28T04:20:12.341Z,81.13
2023-01-28T04:21:12.341Z,81.13
2023-01-28T04:22:12.321Z,81.65
2023-01-28T04:23:12.309Z,80.92
2023-01-28T04:24:12.369Z,80.85
2023-01-28T04:25:12.787Z,81.06
2023-01-28T04:26:12.308Z,81.45
2023-01-28T04:27:12.264Z,82.17
2023-01-28T04:28:12.249Z,82.48
2023-01-28T04:29:12.253Z,82.17
2023-01-28T04:30:12.229Z,81.34
2023-01-28T04:31:12.243Z,81.02
2023-01-28T04:32:12.207Z,80.71
2023-01-28T04:33:12.199Z,80.85
2023-01-28T04:34:12.195Z,81.48
2023-01-28T04:35:12.174Z,80.96
2023-01-28T04:36:12.197Z,81.55
2023-01-28T04:37:12.162Z,81.59
2023-01-28T04:38:12.142Z,81.59
2023-01-28T04:39:12.147Z,81.06
2023-01-28T04:40:12.137Z,80.85
2023-01-28T04:41:12.116Z,80.96
2023-01-28T04:42:12.098Z,81.16
2023-01-28T04:43:12.100Z,81.16
2023-01-28T04:44:12.093Z,81.48
2023-01-28T04:45:12.069Z,81.38
2023-01-28T04:46:12.054Z,81.38
2023-01-28T04:47:12.047Z,81.38
2023-01-28T04:48:12.036Z,80.85
2023-01-28T04:49:12.033Z,80.96
2023-01-28T04:50:12.008Z,80.96
2023-01-28T04:51:12.003Z,80.96
2023-01-28T04:52:11.992Z,80.85
2023-01-28T04:53:11.994Z,80.65
2023-01-28T04:54:11.986Z,81.27
2023-01-28T04:55:11.981Z,81.34
2023-01-28T04:56:11.945Z,81.23
2023-01-28T04:57:11.941Z,81.34
2023-01-28T04:58:11.927Z,80.96
2023-01-28T04:59:11.928Z,80.33
2023-01-28T05:00:11.905Z,80.54
2023-01-28T05:01:11.934Z,81.16
2023-01-28T05:02:11.898Z,81.79
2023-01-28T05:03:11.874Z,82.10
2023-01-28T05:04:11.873Z,81.90
2023-01-28T05:05:11.854Z,81.79
2023-01-28T05:06:11.839Z,81.90
2023-01-28T05:07:11.837Z,81.90
2023-01-28T05:08:11.818Z,82.00
2023-01-28T05:09:11.831Z,82.42
2023-01-28T05:10:11.810Z,82.53
2023-01-28T05:11:11.794Z,82.53
2023-01-28T05:12:11.774Z,83.04
2023-01-28T05:13:11.768Z,83.25
2023-01-28T05:14:11.764Z,83.47
2023-01-28T05:15:11.759Z,83.57
2023-01-28T05:16:11.732Z,83.88
2023-01-28T05:17:11.784Z,83.67
2023-01-28T05:18:11.710Z,83.47
2023-01-28T05:19:11.715Z,83.36
2023-01-28T05:20:11.699Z,82.94
2023-01-28T05:21:11.680Z,82.63
2023-01-28T05:22:11.674Z,82.10
2023-01-28T05:23:11.657Z,82.42
2023-01-28T05:24:11.675Z,82.84
2023-01-28T05:25:11.634Z,83.04
2023-01-28T05:26:11.635Z,82.84
2023-01-28T05:27:11.609Z,82.94
2023-01-28T05:28:11.600Z,82.73
2023-01-28T05:29:11.615Z,83.47
2023-01-28T05:30:11.581Z,83.36
2023-01-28T05:31:11.572Z,83.67
2023-01-28T05:32:11.567Z,83.98
2023-01-28T05:33:11.556Z,84.09
2023-01-28T05:34:11.543Z,83.78
2023-01-28T05:35:11.536Z,82.21
2023-01-28T05:36:11.529Z,81.38
2023-01-28T05:37:11.520Z,81.69
2023-01-28T05:38:13.637Z,82.31
2023-01-28T05:39:11.526Z,81.45
2023-01-28T05:40:11.483Z,80.75
2023-01-28T05:41:11.465Z,80.13
2023-01-28T05:42:11.454Z,79.81
2023-01-28T05:43:11.441Z,80.92
2023-01-28T05:44:11.432Z,80.82
2023-01-28T05:45:11.452Z,79.88
2023-01-28T05:46:11.403Z,80.30
2023-01-28T05:47:11.397Z,80.09
2023-01-28T05:48:11.391Z,80.13
2023-01-28T05:49:11.382Z,80.02
2023-01-28T05:50:11.381Z,79.91
2023-01-28T05:51:11.366Z,79.91
2023-01-28T05:52:11.342Z,80.13
2023-01-28T05:53:11.343Z,80.65
2023-01-28T05:54:11.351Z,80.54
2023-01-28T05:55:11.326Z,81.16
2023-01-28T05:56:11.336Z,81.06
2023-01-28T05:57:11.299Z,80.75
2023-01-28T05:58:11.277Z,81.16
2023-01-28T05:59:11.268Z,82.00
2023-01-28T06:00:11.260Z,80.75
2023-01-28T06:01:11.274Z,80.65
2023-01-28T06:02:11.369Z,80.13
2023-01-28T06:03:11.225Z,80.85
2023-01-28T06:04:11.223Z,80.75
2023-01-28T06:05:11.299Z,80.23
2023-01-28T06:06:11.191Z,80.23
2023-01-28T06:07:11.962Z,80.44
2023-01-28T06:08:11.172Z,81.38
2023-01-28T06:09:11.162Z,80.85
2023-01-28T06:10:11.155Z,80.54
2023-01-28T06:11:11.169Z,80.13
2023-01-28T06:12:11.180Z,80.23
2023-01-28T06:13:11.119Z,80.54
2023-01-28T06:14:11.217Z,80.13
2023-01-28T06:15:11.211Z,80.44
2023-01-28T06:16:11.314Z,80.13
2023-01-28T06:17:11.075Z,80.23
2023-01-28T06:18:11.082Z,80.33
2023-01-28T06:19:11.052Z,80.16
2023-01-28T06:20:11.053Z,80.27
2023-01-28T06:21:11.043Z,79.53
2023-01-28T06:22:11.034Z,79.95
2023-01-28T06:23:11.004Z,79.74
2023-01-28T06:24:11.143Z,80.68
2023-01-28T06:25:11.005Z,80.58
2023-01-28T06:26:10.977Z,80.05
2023-01-28T06:27:10.986Z,80.16
2023-01-28T06:28:10.966Z,80.58
2023-01-28T06:29:10.945Z,80.58
2023-01-28T06:30:10.952Z,80.65
2023-01-28T06:31:11.037Z,81.38
2023-01-28T06:32:10.962Z,80.65
2023-01-28T06:33:10.910Z,80.13
2023-01-28T06:34:10.896Z,79.91
2023-01-28T06:35:10.899Z,80.02
2023-01-28T06:36:10.873Z,79.39
2023-01-28T06:37:10.861Z,79.74
2023-01-28T06:38:10.849Z,80.44
2023-01-28T06:39:10.842Z,80.16
2023-01-28T06:40:10.887Z,79.74
2023-01-28T06:41:10.832Z,80.16
2023-01-28T06:42:10.802Z,80.37
2023-01-28T06:43:10.795Z,80.37
2023-01-28T06:44:10.781Z,80.16
2023-01-28T06:45:10.782Z,80.68
2023-01-28T06:46:10.817Z,80.89
2023-01-28T06:47:10.776Z,79.85
2023-01-28T06:48:10.744Z,79.95
2023-01-28T06:49:10.729Z,78.59
2023-01-28T06:50:10.727Z,78.18
2023-01-28T06:51:10.713Z,78.18
2023-01-28T06:52:10.700Z,78.07
2023-01-28T06:53:10.688Z,78.59
2023-01-28T06:54:10.675Z,78.49
2023-01-28T06:55:10.689Z,79.33
2023-01-28T06:56:10.662Z,78.59
2023-01-28T06:57:10.645Z,79.11
2023-01-28T06:58:10.640Z,79.33
2023-01-28T06:59:10.629Z,79.01
2023-01-28T07:00:10.632Z,79.22
2023-01-28T07:01:10.611Z,79.11
2023-01-28T07:02:10.585Z,78.70
2023-01-28T07:03:10.651Z,78.49
2023-01-28T07:04:10.567Z,78.91
2023-01-28T07:05:10.581Z,79.53
2023-01-28T07:06:10.543Z,79.85
2023-01-28T07:07:10.544Z,79.95
2023-01-28T07:08:10.527Z,80.05
2023-01-28T07:09:10.530Z,80.37
2023-01-28T07:10:10.519Z,80.58
2023-01-28T07:11:10.507Z,80.47
2023-01-28T07:12:10.481Z,80.65
2023-01-28T07:13:10.476Z,81.48
2023-01-28T07:14:10.459Z,81.48
2023-01-28T07:15:10.456Z,80.02
2023-01-28T07:16:10.460Z,79.53
2023-01-28T07:17:10.459Z,80.16
2023-01-28T07:18:10.420Z,80.16
2023-01-28T07:19:10.554Z,80.79
2023-01-28T07:20:10.398Z,80.89
2023-01-28T07:21:10.399Z,80.89
2023-01-28T07:22:10.379Z,80.85
2023-01-28T07:23:10.372Z,80.65
2023-01-28T07:24:10.384Z,80.23
2023-01-28T07:25:10.355Z,80.13
2023-01-28T07:26:10.349Z,79.71
2023-01-28T07:27:10.348Z,80.05
2023-01-28T07:28:10.333Z,79.22
2023-01-28T07:29:10.300Z,79.22
2023-01-28T07:30:10.310Z,79.85
2023-01-28T07:31:10.384Z,79.74
2023-01-28T07:32:10.313Z,79.53
2023-01-28T07:33:10.273Z,79.53
2023-01-28T07:34:10.258Z,80.27
2023-01-28T07:35:10.242Z,80.05
2023-01-28T07:36:10.241Z,79.01
2023-01-28T07:37:10.221Z,79.22
2023-01-28T07:38:10.205Z,79.33
2023-01-28T07:39:10.195Z,79.33
2023-01-28T07:40:10.185Z,78.49
2023-01-28T07:41:10.189Z,78.91
2023-01-28T07:42:10.171Z,79.64
2023-01-28T07:43:10.177Z,79.11
2023-01-28T07:44:10.136Z,79.95
2023-01-28T07:45:10.132Z,80.05
2023-01-28T07:46:10.131Z,79.33
2023-01-28T07:47:10.171Z,79.11
2023-01-28T07:48:10.100Z,79.01
2023-01-28T07:49:10.087Z,78.70
2023-01-28T07:50:10.073Z,78.59
2023-01-28T07:51:10.073Z,79.01
2023-01-28T07:52:10.055Z,79.64
2023-01-28T07:53:10.046Z,79.43
2023-01-28T07:54:10.030Z,79.19
2023-01-28T07:55:10.024Z,79.91
2023-01-28T07:56:10.017Z,79.08
2023-01-28T07:57:10.026Z,78.87
2023-01-28T07:58:09.990Z,78.45
2023-01-28T07:59:09.979Z,77.51
2023-01-28T08:00:09.966Z,78.56
2023-01-28T08:01:10.038Z,79.39
2023-01-28T08:02:09.944Z,79.19
2023-01-28T08:03:09.936Z,78.66
2023-01-28T08:04:09.966Z,78.45
2023-01-28T08:05:10.016Z,78.56
2023-01-28T08:06:09.908Z,78.97
2023-01-28T08:07:09.893Z,79.08
2023-01-28T08:08:09.879Z,78.14
2023-01-28T08:09:09.870Z,78.45
2023-01-28T08:10:09.861Z,78.35
2023-01-28T08:11:09.860Z,78.45
2023-01-28T08:12:09.837Z,78.14
2023-01-28T08:13:09.828Z,77.45
2023-01-28T08:14:09.815Z,77.55
2023-01-28T08:15:09.813Z,77.76
2023-01-28T08:16:09.847Z,77.66
2023-01-28T08:17:09.788Z,78.07
2023-01-28T08:18:09.770Z,78.07
2023-01-28T08:19:09.793Z,78.39
2023-01-28T08:20:09.762Z,77.76
2023-01-28T08:21:09.797Z,77.72
2023-01-28T08:22:09.732Z,77.72
2023-01-28T08:23:09.764Z,78.04
2023-01-28T08:24:09.765Z,78.14
2023-01-28T08:25:09.700Z,77.62
2023-01-28T08:26:09.707Z,78.25
2023-01-28T08:27:09.677Z,77.83
2023-01-28T08:28:09.689Z,77.94
2023-01-28T08:29:09.657Z,78.77
2023-01-28T08:30:09.641Z,78.77
2023-01-28T08:31:09.706Z,77.83
2023-01-28T08:32:09.626Z,78.21
2023-01-28T08:33:09.633Z,78.94
2023-01-28T08:34:09.598Z,79.05
2023-01-28T08:35:09.593Z,77.58
2023-01-28T08:36:09.585Z,77.27
2023-01-28T08:37:09.573Z,77.51
2023-01-28T08:38:09.561Z,77.20
2023-01-28T08:39:09.550Z,76.89
2023-01-28T08:40:09.539Z,76.57
2023-01-28T08:41:09.540Z,76.89
2023-01-28T08:42:09.519Z,76.68
2023-01-28T08:43:09.506Z,76.89
2023-01-28T08:44:09.500Z,76.57
2023-01-28T08:45:09.485Z,76.79
2023-01-28T08:46:09.521Z,77.10
2023-01-28T08:47:09.463Z,77.10
2023-01-28T08:48:09.484Z,77.62
2023-01-28T08:49:09.439Z,77.58
2023-01-28T08:50:09.425Z,77.48
2023-01-28T08:51:09.430Z,76.96
2023-01-28T08:52:09.411Z,77.37
2023-01-28T08:53:09.398Z,77.20
2023-01-28T08:54:09.388Z,77.10
2023-01-28T08:55:09.377Z,76.57
2023-01-28T08:56:09.377Z,77.20
2023-01-28T08:57:09.355Z,77.10
2023-01-28T08:58:09.351Z,76.57
2023-01-28T08:59:09.335Z,75.95
2023-01-28T09:00:09.317Z,76.16
2023-01-28T09:01:09.321Z,75.85
2023-01-28T09:02:19.104Z,76.26
2023-01-28T09:03:09.297Z,76.26
2023-01-28T09:04:09.291Z,75.74
2023-01-28T09:05:09.271Z,76.37
2023-01-28T09:06:09.270Z,77.31
2023-01-28T09:07:09.255Z,77.10
2023-01-28T09:08:09.234Z,77.00
2023-01-28T09:09:09.233Z,77.10
2023-01-28T09:10:09.215Z,77.41
2023-01-28T09:11:09.220Z,77.69
2023-01-28T09:12:09.191Z,78.00
2023-01-28T09:13:09.187Z,78.21
2023-01-28T09:14:09.172Z,78.28
2023-01-28T09:15:09.154Z,77.34
2023-01-28T09:16:09.220Z,76.96
2023-01-28T09:17:09.136Z,75.92
2023-01-28T09:18:09.131Z,76.65
2023-01-28T09:19:09.116Z,77.17
2023-01-28T09:20:09.144Z,77.37
2023-01-28T09:21:09.098Z,76.75
2023-01-28T09:22:09.091Z,76.86
2023-01-28T09:23:09.099Z,76.65
2023-01-28T09:24:09.116Z,76.37
2023-01-28T09:25:09.050Z,75.95
2023-01-28T09:26:09.056Z,76.26
2023-01-28T09:27:09.029Z,76.26
2023-01-28T09:28:09.019Z,76.47
2023-01-28T09:29:09.004Z,76.37
2023-01-28T09:30:08.996Z,76.47
2023-01-28T09:31:09.113Z,77.62
2023-01-28T09:32:08.975Z,76.68
2023-01-28T09:33:08.962Z,77.00
2023-01-28T09:34:08.959Z,77.31
2023-01-28T09:35:08.939Z,77.62
2023-01-28T09:36:08.941Z,77.20
2023-01-28T09:37:08.918Z,77.00
2023-01-28T09:38:08.935Z,76.16
2023-01-28T09:39:08.897Z,76.68
2023-01-28T09:40:08.890Z,77.41
2023-01-28T09:41:08.886Z,78.45
2023-01-28T09:42:08.871Z,78.11
2023-01-28T09:43:08.865Z,76.86
2023-01-28T09:44:08.852Z,76.02
2023-01-28T09:45:08.837Z,76.33
2023-01-28T09:46:08.867Z,76.43
2023-01-28T09:47:08.843Z,75.71
2023-01-28T09:48:08.806Z,75.60
2023-01-28T09:49:08.793Z,75.60
2023-01-28T09:50:08.780Z,76.75
2023-01-28T09:51:08.787Z,76.30
2023-01-28T09:52:08.786Z,75.78
2023-01-28T09:53:08.746Z,75.98
2023-01-28T09:54:08.740Z,76.09
2023-01-28T09:55:08.738Z,75.36
2023-01-28T09:56:08.733Z,75.08
2023-01-28T09:57:08.698Z,75.50
2023-01-28T09:58:08.695Z,75.88
2023-01-28T09:59:08.678Z,76.30
2023-01-28T10:00:08.679Z,75.67
2023-01-28T10:01:08.702Z,75.98
2023-01-28T10:02:08.651Z,75.67
2023-01-28T10:03:08.639Z,75.71
2023-01-28T10:04:08.689Z,75.81
2023-01-28T10:05:08.620Z,75.67
2023-01-28T10:06:08.609Z,76.12
2023-01-28T10:07:08.607Z,75.71
2023-01-28T10:08:08.586Z,76.09
2023-01-28T10:09:08.571Z,75.46
2023-01-28T10:10:08.563Z,75.71
2023-01-28T10:11:08.553Z,76.12
2023-01-28T10:12:08.577Z,75.71
2023-01-28T10:13:09.468Z,75.50
2023-01-28T10:14:08.520Z,76.33
2023-01-28T10:15:08.507Z,76.54
2023-01-28T10:16:08.547Z,76.96
2023-01-28T10:17:08.589Z,75.92
2023-01-28T10:18:17.169Z,76.02
2023-01-28T10:19:08.470Z,75.60
2023-01-28T10:20:08.461Z,75.92
2023-01-28T10:21:08.444Z,76.65
2023-01-28T10:22:08.446Z,76.75
2023-01-28T10:23:08.419Z,76.40
2023-01-28T10:24:08.439Z,76.12
2023-01-28T10:25:08.399Z,76.09
2023-01-28T10:26:08.390Z,75.92
2023-01-28T10:27:08.389Z,76.33
2023-01-28T10:28:08.368Z,76.23
2023-01-28T10:29:08.353Z,76.26
2023-01-28T10:30:08.345Z,76.26
2023-01-28T10:31:08.429Z,76.37
2023-01-28T10:32:08.362Z,76.68
2023-01-28T10:33:08.317Z,77.27
2023-01-28T10:34:08.304Z,77.17
2023-01-28T10:35:08.288Z,76.33
2023-01-28T10:36:08.287Z,76.43
2023-01-28T10:37:08.281Z,76.40
2023-01-28T10:38:08.264Z,76.61
2023-01-28T10:39:08.245Z,76.72
2023-01-28T10:40:08.243Z,76.12
2023-01-28T10:41:09.032Z,75.71
2023-01-28T10:42:08.228Z,75.81
2023-01-28T10:43:08.212Z,75.60
2023-01-28T10:44:08.194Z,76.65
2023-01-28T10:45:08.177Z,75.81
2023-01-28T10:46:08.207Z,75.88
2023-01-28T10:47:08.168Z,74.98
2023-01-28T10:48:08.157Z,74.70
2023-01-28T10:49:08.144Z,75.50
2023-01-28T10:50:08.126Z,76.02
2023-01-28T10:51:08.119Z,75.81
2023-01-28T10:52:08.112Z,76.12
2023-01-28T10:53:08.099Z,76.23
2023-01-28T10:54:08.083Z,76.43
2023-01-28T10:55:08.079Z,75.50
2023-01-28T10:56:08.060Z,75.81
2023-01-28T10:57:08.071Z,76.02
2023-01-28T10:58:08.059Z,76.23
2023-01-28T10:59:08.037Z,74.98
2023-01-28T11:00:08.017Z,74.56
2023-01-28T11:01:08.060Z,75.08
2023-01-28T11:02:08.060Z,74.77
2023-01-28T11:03:07.988Z,76.30
2023-01-28T11:04:07.976Z,75.15
2023-01-28T11:05:07.999Z,74.74
2023-01-28T11:06:07.953Z,76.09
2023-01-28T11:07:07.954Z,74.95
2023-01-28T11:08:07.929Z,75.22
2023-01-28T11:09:07.922Z,75.12
2023-01-28T11:10:07.907Z,74.87
2023-01-28T11:11:07.904Z,73.55
2023-01-28T11:12:07.950Z,73.83
2023-01-28T11:13:07.877Z,74.98
2023-01-28T11:14:07.863Z,75.05
2023-01-28T11:15:07.918Z,74.01
2023-01-28T11:16:07.842Z,73.59
2023-01-28T11:17:07.849Z,72.93
2023-01-28T11:18:08.145Z,73.03
2023-01-28T11:19:07.835Z,72.52
2023-01-28T11:20:07.814Z,72.97
2023-01-28T11:21:07.794Z,73.18
2023-01-28T11:22:07.787Z,73.77
2023-01-28T11:23:07.779Z,74.29
2023-01-28T11:24:07.800Z,73.14
2023-01-28T11:25:07.751Z,72.72
2023-01-28T11:26:07.732Z,71.79
2023-01-28T11:27:07.736Z,72.83
2023-01-28T11:28:07.710Z,72.83
2023-01-28T11:29:07.706Z,72.31
2023-01-28T11:30:07.690Z,72.20
2023-01-28T11:31:07.733Z,72.38
2023-01-28T11:32:07.684Z,72.17
2023-01-28T11:33:07.661Z,71.75
2023-01-28T11:34:07.651Z,71.97
2023-01-28T11:35:07.645Z,71.97
2023-01-28T11:36:07.630Z,71.58
2023-01-28T11:37:07.620Z,72.20
2023-01-28T11:38:07.616Z,72.31
2023-01-28T11:39:07.614Z,73.25
2023-01-28T11:40:07.599Z,72.72
2023-01-28T11:41:07.576Z,72.69
2023-01-28T11:42:07.561Z,73.03
2023-01-28T11:43:07.567Z,73.03
2023-01-28T11:44:07.539Z,73.25
2023-01-28T11:45:07.560Z,73.03
2023-01-28T11:46:07.580Z,73.07
2023-01-28T11:47:07.529Z,74.01
2023-01-28T11:48:07.508Z,74.43
2023-01-28T11:49:07.515Z,74.60
2023-01-28T11:50:07.511Z,74.70
2023-01-28T11:51:07.469Z,74.15
2023-01-28T11:52:07.459Z,72.31
2023-01-28T11:53:07.983Z,72.83
2023-01-28T11:54:07.435Z,72.90
2023-01-28T11:55:07.427Z,72.90
2023-01-28T11:56:07.412Z,74.04
2023-01-28T11:57:07.407Z,73.18
2023-01-28T11:58:07.401Z,72.55
2023-01-28T11:59:07.384Z,73.14
2023-01-28T12:00:07.371Z,73.77
2023-01-28T12:01:07.361Z,72.94
2023-01-28T12:02:07.346Z,71.93
2023-01-28T12:03:07.352Z,72.17
2023-01-28T12:04:07.330Z,72.97
2023-01-28T12:05:07.320Z,72.24
2023-01-28T12:06:07.304Z,72.17
2023-01-28T12:07:07.300Z,71.97
2023-01-28T12:08:07.293Z,72.31
2023-01-28T12:09:07.292Z,73.35
2023-01-28T12:10:07.265Z,73.25
2023-01-28T12:11:07.252Z,73.35
2023-01-28T12:12:07.241Z,73.56
2023-01-28T12:13:07.239Z,73.87
2023-01-28T12:14:07.225Z,73.46
2023-01-28T12:15:07.203Z,73.59
2023-01-28T12:16:07.220Z,74.43
2023-01-28T12:17:07.185Z,74.53
2023-01-28T12:18:07.189Z,74.56
2023-01-28T12:19:07.164Z,74.87
2023-01-28T12:20:07.158Z,75.71
2023-01-28T12:21:07.142Z,75.29
2023-01-28T12:22:07.137Z,74.66
2023-01-28T12:23:07.129Z,75.29
2023-01-28T12:24:07.393Z,75.53
2023-01-28T12:25:07.103Z,76.16
2023-01-28T12:26:07.133Z,76.26
2023-01-28T12:27:07.081Z,75.43
2023-01-28T12:28:07.097Z,75.43
2023-01-28T12:29:07.055Z,75.12
2023-01-28T12:30:07.046Z,76.37
2023-01-28T12:31:07.149Z,76.89
2023-01-28T12:32:07.103Z,75.95
2023-01-28T12:33:07.025Z,75.95
2023-01-28T12:34:07.012Z,77.31
2023-01-28T12:35:06.987Z,76.99
2023-01-28T12:36:06.995Z,76.68
2023-01-28T12:37:06.966Z,76.78
2023-01-28T12:38:06.971Z,75.95
2023-01-28T12:39:06.947Z,75.95
2023-01-28T12:40:06.941Z,75.85
2023-01-28T12:41:06.925Z,76.16
2023-01-28T12:42:06.924Z,76.78
2023-01-28T12:43:06.912Z,76.99
2023-01-28T12:44:06.902Z,76.57
2023-01-28T12:45:06.884Z,76.68
2023-01-28T12:46:06.897Z,76.89
2023-01-28T12:47:06.858Z,76.37
2023-01-28T12:48:06.863Z,76.23
2023-01-28T12:49:06.839Z,76.02
2023-01-28T12:50:06.830Z,75.92
2023-01-28T12:51:06.825Z,76.75
2023-01-28T12:52:06.808Z,77.03